»·PEaware :: SKW4214 KSNA-KLAS

SKW4214 :: KSNA-KLAS

FLIGHT INFORMATION

Flight Status: Arrived
Operator:
SkyWest Airlines
More flights by this operator :: More flights under this callsign
Pilot: Anonymous 12254 (12254)
Aircraft: CANADAIR CL-600 CRJ-200
(CRJ2)
More flights by this aircraft type
Origin: KSNA John Wayne-Orange Co
United States
Destination: KLAS McCarran Intl
United States
More flights between these airports :: More routes between these airports
Route: FINZZ2 MISEN KEPEC6
File this flight plan on PilotEdge
Remarks:
Altitude:
(Current/Filed)
29,000ft
Speed:
(Current/Filed)
400kts
Departed: 30-Jun-20 03:18 PM
Arrived: 30-Jun-20 04:09 PM
Distance/Time
Traveled:
197nm/0:51
Distance/Time
To Go:
Arrived

Flight Plot

Page will automatically refresh every two minutes.

Flight plan parsing failed; only flown route is shown


Map Options




Map Legend


Flown Route
Filed Route
Departure Airport
Arrival Airport
Navaid (VOR, NDB)
Fix

Horizontal Profiles

Position Reports

Time Latitude Longitude Heading Altitude Ground
Speed
30-Jun-20 14:49 33.675700 -117.864594 118 61ft 0kts
30-Jun-20 14:49 33.675700 -117.864594 118 61ft 0kts
30-Jun-20 14:51 33.675700 -117.864594 118 61ft 0kts
30-Jun-20 14:52 33.675700 -117.864594 118 61ft 0kts
30-Jun-20 14:52 33.675700 -117.864594 118 61ft 0kts
30-Jun-20 14:54 33.675700 -117.864594 118 61ft 0kts
30-Jun-20 14:54 33.675700 -117.864594 118 61ft 0kts
30-Jun-20 14:55 33.675700 -117.864594 118 61ft 0kts
30-Jun-20 14:56 33.675700 -117.864594 118 61ft 0kts
30-Jun-20 14:57 33.675700 -117.864594 118 61ft 0kts
30-Jun-20 14:58 33.675700 -117.864594 118 61ft 0kts
30-Jun-20 14:59 33.675700 -117.864594 118 61ft 0kts
30-Jun-20 15:00 33.675700 -117.864594 118 61ft 0kts
30-Jun-20 15:01 33.675700 -117.864594 118 61ft 0kts
30-Jun-20 15:02 33.675700 -117.864594 118 61ft 0kts
30-Jun-20 15:03 33.675700 -117.864594 118 61ft 0kts
30-Jun-20 15:04 33.675700 -117.864594 118 61ft 0kts
30-Jun-20 15:05 33.675700 -117.864594 118 61ft 0kts
30-Jun-20 15:06 33.675700 -117.864594 118 61ft 0kts
30-Jun-20 15:07 33.675700 -117.864594 118 61ft 0kts
30-Jun-20 15:08 33.675700 -117.864594 118 61ft 0kts
30-Jun-20 15:09 33.675700 -117.864594 118 61ft 0kts
30-Jun-20 15:10 33.675912 -117.865172 90 61ft 6kts
30-Jun-20 15:11 33.675824 -117.865395 29 61ft 0kts
30-Jun-20 15:12 33.675840 -117.865385 29 61ft 0kts
30-Jun-20 15:13 33.677877 -117.864096 27 61ft 16kts
30-Jun-20 15:14 33.680592 -117.862951 296 61ft 0kts
30-Jun-20 15:15 33.680593 -117.862951 296 61ft 0kts
30-Jun-20 15:16 33.681374 -117.865174 240 61ft 14kts
30-Jun-20 15:17 33.653261 -117.882940 207 1026ft 210kts
30-Jun-20 15:18 33.590472 -117.896432 186 3002ft 228kts
30-Jun-20 15:19 33.541163 -117.934841 221 4975ft 205kts
30-Jun-20 15:20 33.501802 -117.978305 222 6938ft 196kts
30-Jun-20 15:21 33.508448 -118.035589 311 9036ft 218kts
30-Jun-20 15:22 33.551900 -118.093109 312 11088ft 249kts
30-Jun-20 15:23 33.614917 -118.112455 22 13168ft 274kts
30-Jun-20 15:24 33.687330 -118.072459 25 15201ft 299kts
30-Jun-20 15:25 33.764704 -118.027529 25 17224ft 319kts
30-Jun-20 15:26 33.846142 -117.979975 25 19238ft 332kts
30-Jun-20 15:27 33.927393 -117.924899 36 21251ft 339kts
30-Jun-20 15:28 34.003021 -117.856354 37 23250ft 341kts
30-Jun-20 15:29 34.078022 -117.787673 37 25238ft 337kts
30-Jun-20 15:30 34.138612 -117.704310 50 27224ft 325kts
30-Jun-20 15:31 34.194346 -117.621758 50 29010ft 314kts
30-Jun-20 15:32 34.253341 -117.533981 50 29036ft 360kts
30-Jun-20 15:33 34.320329 -117.434035 50 29034ft 404kts
30-Jun-20 15:34 34.394474 -117.323082 51 29032ft 442kts
30-Jun-20 15:35 34.474526 -117.202897 51 29030ft 472kts
30-Jun-20 15:36 34.558508 -117.077397 50 29161ft 484kts
30-Jun-20 15:37 34.644967 -116.951345 50 29375ft 486kts
30-Jun-20 15:38 34.728136 -116.829753 50 28573ft 455kts
30-Jun-20 15:39 34.807200 -116.713772 50 27560ft 438kts
30-Jun-20 15:40 34.890993 -116.609416 38 26553ft 426kts
30-Jun-20 15:41 34.982372 -116.520525 38 25548ft 417kts
30-Jun-20 15:42 35.072257 -116.433152 38 24548ft 411kts
30-Jun-20 15:43 35.154770 -116.338191 45 24024ft 394kts
30-Jun-20 15:44 35.229922 -116.244083 45 23207ft 382kts
30-Jun-20 15:45 35.302839 -116.152424 45 22199ft 371kts
30-Jun-20 15:46 35.373929 -116.062817 45 21195ft 364kts
30-Jun-20 15:47 35.443846 -115.974452 45 20191ft 357kts
30-Jun-20 15:48 35.511832 -115.888302 45 19185ft 347kts
30-Jun-20 15:49 35.578626 -115.803444 45 17021ft 342kts
30-Jun-20 15:50 35.643443 -115.720888 45 14523ft 332kts
30-Jun-20 15:51 35.705423 -115.641761 45 13091ft 297kts
30-Jun-20 15:52 35.764672 -115.579639 9 13106ft 276kts
30-Jun-20 15:53 35.841491 -115.571238 2 13100ft 278kts
30-Jun-20 15:54 35.918838 -115.566525 2 13100ft 278kts
30-Jun-20 15:55 35.974637 -115.540336 58 12756ft 282kts
30-Jun-20 15:56 36.006840 -115.450721 67 11783ft 288kts
30-Jun-20 15:57 36.028481 -115.356653 92 10792ft 284kts
30-Jun-20 15:58 36.022682 -115.259996 95 9787ft 279kts
30-Jun-20 15:59 36.016058 -115.165248 96 8788ft 275kts
30-Jun-20 16:00 36.009645 -115.071687 93 7783ft 267kts
30-Jun-20 16:01 36.004377 -114.981495 93 6700ft 262kts
30-Jun-20 16:02 36.011169 -114.894504 45 5415ft 260kts
30-Jun-20 16:03 36.068479 -114.902453 291 4610ft 237kts
30-Jun-20 16:04 36.074312 -114.978331 265 4064ft 208kts
30-Jun-20 16:05 36.073508 -115.041287 270 3389ft 159kts
30-Jun-20 16:06 36.073366 -115.091921 273 2541ft 140kts
30-Jun-20 16:07 36.073643 -115.139791 271 2082ft 116kts
30-Jun-20 16:08 36.074718 -115.145912 300 2100ft 4kts
30-Jun-20 16:09 36.077043 -115.146517 351 2100ft 7kts
30-Jun-20 16:10 36.077588 -115.146499 30 2099ft 7kts

Navigation Log

Ident Type
Flight plan parsing failed, navigation log unavailable